createdAt,value
2019-02-05T00:01:21.046Z,15.07
2019-02-05T00:03:50.615Z,16.70
2019-02-05T00:06:20.482Z,17.20
2019-02-05T00:08:50.051Z,19.63
2019-02-05T00:11:19.544Z,20.43
2019-02-05T00:13:48.938Z,18.43
2019-02-05T00:16:18.328Z,12.37
2019-02-05T00:18:47.824Z,17.00
2019-02-05T00:21:17.791Z,16.07
2019-02-05T00:23:47.193Z,16.03
2019-02-05T00:26:16.589Z,17.93
2019-02-05T00:28:46.110Z,19.77
2019-02-05T00:31:15.634Z,15.63
2019-02-05T00:33:45.005Z,23.53
2019-02-05T00:36:14.681Z,19.27
2019-02-05T00:38:44.164Z,18.57
2019-02-05T00:41:13.759Z,17.77
2019-02-05T00:43:43.154Z,17.40
2019-02-05T00:46:12.838Z,15.90
2019-02-05T00:48:42.219Z,19.57
2019-02-05T00:51:11.669Z,24.33
2019-02-05T00:53:41.368Z,22.27
2019-02-05T00:56:17.360Z,17.63
2019-02-05T00:58:41.980Z,13.43
2019-02-05T01:01:11.371Z,16.70
2019-02-05T01:03:40.850Z,13.90
2019-02-05T01:06:10.494Z,16.83
2019-02-05T01:08:40.132Z,13.93
2019-02-05T01:11:09.522Z,16.87
2019-02-05T01:13:39.145Z,27.10
2019-02-05T01:16:08.759Z,17.03
2019-02-05T01:18:38.660Z,25.87
2019-02-05T01:21:08.167Z,21.40
2019-02-05T01:23:37.655Z,35.97
2019-02-05T01:26:07.158Z,30.40
2019-02-05T01:28:36.721Z,35.63
2019-02-05T01:31:06.114Z,25.37
2019-02-05T01:33:35.675Z,17.90
2019-02-05T01:36:05.156Z,17.17
2019-02-05T01:38:34.548Z,17.43
2019-02-05T01:41:03.986Z,21.33
2019-02-05T01:43:33.482Z,21.73
2019-02-05T01:46:03.081Z,22.07
2019-02-05T01:48:32.470Z,17.63
2019-02-05T01:51:01.873Z,15.80
2019-02-05T01:53:31.364Z,14.87
2019-02-05T01:56:00.858Z,15.73
2019-02-05T01:58:30.289Z,13.97
2019-02-05T02:00:59.955Z,22.57
2019-02-05T02:03:29.783Z,14.47
2019-02-05T02:05:59.176Z,15.77
2019-02-05T02:08:29.046Z,17.47
2019-02-05T02:10:58.626Z,15.37
2019-02-05T02:13:28.104Z,18.27
2019-02-05T02:15:58.106Z,18.23
2019-02-05T02:18:27.581Z,14.00
2019-02-05T02:20:57.100Z,16.87
2019-02-05T02:23:26.592Z,16.73
2019-02-05T02:25:55.973Z,16.43
2019-02-05T02:28:25.474Z,20.67
2019-02-05T02:30:54.966Z,14.27
2019-02-05T02:33:24.507Z,23.17
2019-02-05T02:35:54.139Z,16.93
2019-02-05T02:38:23.635Z,21.47
2019-02-05T02:40:53.379Z,21.13
2019-02-05T02:43:22.771Z,17.80
2019-02-05T02:45:52.265Z,24.23
2019-02-05T02:48:21.699Z,19.13
2019-02-05T02:50:51.080Z,21.73
2019-02-05T02:53:20.794Z,19.10
2019-02-05T02:55:50.543Z,22.67
2019-02-05T02:58:20.150Z,19.50
2019-02-05T03:00:49.840Z,23.73
2019-02-05T03:03:19.714Z,23.40
2019-02-05T03:05:49.600Z,19.07
2019-02-05T03:08:19.338Z,26.83
2019-02-05T03:10:49.059Z,22.07
2019-02-05T03:13:18.918Z,23.17
2019-02-05T03:15:48.776Z,25.10
2019-02-05T03:18:18.483Z,22.07
2019-02-05T03:20:48.095Z,17.37
2019-02-05T03:23:17.769Z,18.90
2019-02-05T03:25:47.159Z,18.83
2019-02-05T03:28:16.908Z,23.03
2019-02-05T03:30:46.725Z,23.73
2019-02-05T03:33:16.315Z,27.13
2019-02-05T03:35:45.808Z,28.27
2019-02-05T03:38:15.598Z,28.57
2019-02-05T03:41:04.800Z,35.37
2019-02-05T03:43:35.431Z,53.50
2019-02-05T03:46:09.949Z,46.03
2019-02-05T03:48:40.647Z,40.60
2019-02-05T03:51:30.577Z,49.23
2019-02-05T03:54:30.238Z,46.87
2019-02-05T03:57:09.437Z,44.57
2019-02-05T04:00:06.591Z,34.40
2019-02-05T04:02:58.094Z,29.33
2019-02-05T04:06:14.388Z,28.33
2019-02-05T04:09:12.739Z,24.63
2019-02-05T04:12:13.507Z,24.27
2019-02-05T04:14:58.359Z,22.33
2019-02-05T04:18:00.494Z,28.67
2019-02-05T04:21:11.015Z,30.57
2019-02-05T04:24:00.081Z,22.30
2019-02-05T04:26:42.704Z,25.07
2019-02-05T04:29:55.045Z,28.10
2019-02-05T04:33:17.502Z,24.70
2019-02-05T04:36:42.813Z,49.73
2019-02-05T04:39:40.827Z,41.50
2019-02-05T04:42:37.551Z,34.63
2019-02-05T04:45:37.361Z,28.00
2019-02-05T04:48:56.447Z,42.40
2019-02-05T04:51:50.109Z,41.23
2019-02-05T04:55:14.658Z,37.50
2019-02-05T04:58:15.774Z,51.50
2019-02-05T05:01:18.802Z,37.03
2019-02-05T05:04:16.678Z,27.63
2019-02-05T05:07:22.474Z,30.10
2019-02-05T05:09:59.964Z,28.70
2019-02-05T05:12:30.582Z,32.37
2019-02-05T05:15:00.899Z,28.43
2019-02-05T05:17:30.519Z,43.03
2019-02-05T05:20:00.517Z,49.40
2019-02-05T05:22:30.768Z,35.93
2019-02-05T05:25:00.363Z,45.80
2019-02-05T05:27:30.785Z,33.13
2019-02-05T05:30:00.585Z,38.07
2019-02-05T05:32:30.206Z,37.87
2019-02-05T05:35:00.153Z,42.97
2019-02-05T05:37:29.750Z,44.30
2019-02-05T05:39:59.234Z,55.33
2019-02-05T05:42:28.897Z,59.90
2019-02-05T05:44:58.296Z,46.83
2019-02-05T05:47:27.776Z,42.67
2019-02-05T05:49:57.288Z,37.60
2019-02-05T05:52:26.948Z,34.70
2019-02-05T05:54:56.689Z,35.47
2019-02-05T05:57:26.743Z,32.10
2019-02-05T05:59:56.225Z,35.17
2019-02-05T06:02:25.615Z,31.13
2019-02-05T06:04:55.001Z,44.37
2019-02-05T06:07:24.646Z,57.27
2019-02-05T06:09:54.117Z,73.60
2019-02-05T06:12:23.542Z,98.20
2019-02-05T06:14:52.936Z,48.90
2019-02-05T06:17:22.477Z,46.43
2019-02-05T06:19:51.861Z,50.97
2019-02-05T06:22:21.462Z,39.80
2019-02-05T06:24:50.994Z,45.53
2019-02-05T06:27:20.505Z,40.90
2019-02-05T06:29:50.269Z,40.93
2019-02-05T06:32:20.161Z,44.60
2019-02-05T06:34:49.704Z,40.00
2019-02-05T06:37:19.099Z,53.00
2019-02-05T06:39:51.641Z,43.53
2019-02-05T06:42:21.496Z,55.90
2019-02-05T06:44:51.150Z,78.17
2019-02-05T06:47:20.548Z,90.70
2019-02-05T06:49:50.029Z,71.93
2019-02-05T06:52:19.537Z,88.10
2019-02-05T06:54:49.029Z,168.17
2019-02-05T06:57:18.479Z,164.63
2019-02-05T06:59:48.260Z,162.10
2019-02-05T07:02:17.755Z,134.73
2019-02-05T07:04:47.257Z,124.57
2019-02-05T07:07:16.647Z,87.37
2019-02-05T07:09:46.049Z,72.17
2019-02-05T07:12:15.555Z,64.13
2019-02-05T07:14:45.097Z,63.47
2019-02-05T07:17:14.496Z,60.90
2019-02-05T07:19:43.894Z,62.60
2019-02-05T07:22:13.489Z,48.10
2019-02-05T07:24:42.986Z,49.00
2019-02-05T07:27:12.375Z,66.57
2019-02-05T07:29:41.774Z,101.63
2019-02-05T07:32:11.652Z,100.57
2019-02-05T07:34:41.144Z,80.83
2019-02-05T07:37:10.573Z,70.47
2019-02-05T07:39:40.064Z,72.93
2019-02-05T07:42:09.475Z,94.73
2019-02-05T07:44:40.067Z,54.50
2019-02-05T07:47:09.743Z,52.80
2019-02-05T07:49:39.526Z,44.07
2019-02-05T07:52:09.115Z,41.13
2019-02-05T07:54:38.507Z,50.90
2019-02-05T07:57:08.162Z,50.07
2019-02-05T07:59:37.899Z,42.53
2019-02-05T08:02:07.614Z,38.80
2019-02-05T08:04:37.008Z,49.67
2019-02-05T08:07:07.685Z,44.03
2019-02-05T08:09:37.688Z,41.13
2019-02-05T08:12:07.291Z,44.40
2019-02-05T08:14:36.674Z,42.20
2019-02-05T08:17:06.208Z,70.73
2019-02-05T08:19:35.633Z,53.97
2019-02-05T08:22:05.321Z,52.80
2019-02-05T08:24:35.120Z,55.17
2019-02-05T08:27:04.790Z,52.70
2019-02-05T08:29:34.540Z,47.43
2019-02-05T08:32:04.352Z,45.63
2019-02-05T08:34:33.859Z,54.07
2019-02-05T08:37:03.377Z,50.53
2019-02-05T08:39:33.103Z,42.73
2019-02-05T08:42:02.607Z,40.70
2019-02-05T08:44:32.206Z,35.23
2019-02-05T08:47:01.613Z,35.13
2019-02-05T08:49:31.012Z,34.10
2019-02-05T08:52:00.508Z,34.57
2019-02-05T08:54:29.988Z,38.17
2019-02-05T08:56:59.806Z,37.57
2019-02-05T08:59:29.250Z,34.57
2019-02-05T09:01:58.643Z,32.33
2019-02-05T09:04:28.048Z,36.33
2019-02-05T09:06:57.534Z,37.60
2019-02-05T09:09:27.037Z,37.97
2019-02-05T09:11:56.514Z,34.10
2019-02-05T09:14:27.547Z,34.70
2019-02-05T09:16:57.058Z,44.53
2019-02-05T09:19:26.668Z,46.37
2019-02-05T09:21:56.061Z,36.63
2019-02-05T09:24:25.461Z,36.43
2019-02-05T09:26:54.958Z,32.27
2019-02-05T09:29:33.214Z,37.83
2019-02-05T09:31:55.686Z,32.93
2019-02-05T09:34:25.090Z,138.20
2019-02-05T09:36:54.583Z,51.40
2019-02-05T09:39:24.103Z,20.33
2019-02-05T09:41:53.727Z,19.60
2019-02-05T09:44:23.600Z,42.70
2019-02-05T09:46:52.990Z,58.23
2019-02-05T09:49:22.391Z,21.73
2019-02-05T09:51:52.020Z,23.90
2019-02-05T09:54:21.497Z,21.90
2019-02-05T09:56:50.936Z,24.67
2019-02-05T09:59:20.333Z,20.87
2019-02-05T10:01:50.007Z,20.60
2019-02-05T10:04:19.583Z,32.30
2019-02-05T10:06:50.064Z,42.60
2019-02-05T10:09:19.880Z,18.50
2019-02-05T10:11:49.370Z,20.37
2019-02-05T10:14:18.869Z,24.10
2019-02-05T10:16:48.685Z,19.53
2019-02-05T10:19:18.190Z,19.23
2019-02-05T10:21:47.590Z,20.57
2019-02-05T10:24:17.061Z,18.67
2019-02-05T10:26:46.594Z,23.10
2019-02-05T10:29:16.088Z,20.03
2019-02-05T10:31:45.482Z,20.00
2019-02-05T10:34:15.052Z,25.80
2019-02-05T10:36:44.602Z,22.57
2019-02-05T10:39:14.353Z,20.53
2019-02-05T10:41:43.726Z,16.13
2019-02-05T10:44:13.115Z,17.60
2019-02-05T10:46:42.603Z,19.40
2019-02-05T10:49:12.441Z,17.27
2019-02-05T10:51:43.281Z,18.00
2019-02-05T10:54:12.666Z,21.23
2019-02-05T10:56:42.161Z,20.97
2019-02-05T10:59:11.651Z,19.63
2019-02-05T11:01:41.254Z,19.07
2019-02-05T11:04:10.742Z,18.50
2019-02-05T11:06:40.206Z,19.37
2019-02-05T11:09:11.290Z,20.97
2019-02-05T11:11:40.790Z,23.00
2019-02-05T11:14:10.275Z,23.20
2019-02-05T11:16:39.701Z,20.43
2019-02-05T11:19:09.210Z,17.93
2019-02-05T11:21:39.074Z,18.70
2019-02-05T11:24:08.692Z,21.90
2019-02-05T11:26:38.101Z,19.73
2019-02-05T11:29:07.508Z,16.53
2019-02-05T11:31:37.000Z,18.27
2019-02-05T11:34:06.762Z,17.07
2019-02-05T11:36:36.151Z,37.33
2019-02-05T11:39:13.780Z,19.10
2019-02-05T11:41:43.285Z,24.53
2019-02-05T11:44:12.677Z,29.00
2019-02-05T11:46:42.167Z,27.40
2019-02-05T11:49:11.668Z,27.10
2019-02-05T11:51:42.147Z,21.90
2019-02-05T11:54:11.542Z,16.30
2019-02-05T11:56:41.053Z,14.90
2019-02-05T11:59:10.527Z,16.67
2019-02-05T12:01:40.623Z,12.97
2019-02-05T12:04:10.012Z,20.57
2019-02-05T12:06:39.530Z,20.40
2019-02-05T12:09:19.186Z,18.27
2019-02-05T12:11:48.644Z,18.43
2019-02-05T12:14:18.046Z,27.57
2019-02-05T12:16:47.603Z,17.30
2019-02-05T12:19:17.107Z,22.90
2019-02-05T12:21:46.706Z,19.17
2019-02-05T12:24:16.125Z,21.17
2019-02-05T12:26:45.721Z,18.47
2019-02-05T12:29:15.230Z,19.53
2019-02-05T12:31:44.620Z,19.37
2019-02-05T12:34:14.181Z,19.50
2019-02-05T12:36:43.677Z,27.40
2019-02-05T12:39:18.209Z,53.13
2019-02-05T12:41:48.010Z,34.90
2019-02-05T12:44:17.504Z,48.90
2019-02-05T12:46:47.006Z,31.13
2019-02-05T12:49:16.507Z,27.13
2019-02-05T12:51:45.964Z,62.10
2019-02-05T12:54:15.749Z,31.03
2019-02-05T12:56:45.243Z,23.07
2019-02-05T12:59:14.648Z,19.73
2019-02-05T13:01:44.128Z,17.60
2019-02-05T13:04:13.680Z,21.70
2019-02-05T13:06:43.067Z,32.43
2019-02-05T13:09:12.647Z,18.50
2019-02-05T13:11:42.142Z,20.80
2019-02-05T13:14:11.627Z,19.57
2019-02-05T13:16:41.036Z,22.63
2019-02-05T13:19:10.431Z,18.40
2019-02-05T13:21:39.935Z,20.80
2019-02-05T13:24:09.515Z,26.00
2019-02-05T13:26:38.921Z,19.27
2019-02-05T13:29:08.321Z,28.97
2019-02-05T13:31:37.871Z,24.63
2019-02-05T13:34:07.875Z,20.97
2019-02-05T13:36:37.275Z,20.73
2019-02-05T13:39:11.968Z,23.03
2019-02-05T13:41:41.358Z,26.30
2019-02-05T13:44:10.771Z,23.53
2019-02-05T13:46:40.266Z,21.67
2019-02-05T13:49:09.863Z,26.70
2019-02-05T13:51:39.641Z,24.70
2019-02-05T13:54:09.076Z,19.97
2019-02-05T13:56:38.762Z,20.33
2019-02-05T13:59:08.252Z,24.03
2019-02-05T14:01:37.999Z,23.63
2019-02-05T14:04:07.527Z,23.27
2019-02-05T14:06:37.295Z,23.87
2019-02-05T14:09:12.736Z,23.57
2019-02-05T14:11:42.472Z,27.53
2019-02-05T14:14:11.876Z,31.20
2019-02-05T14:16:41.714Z,29.10
2019-02-05T14:19:11.099Z,32.90
2019-02-05T14:21:40.861Z,36.07
2019-02-05T14:24:10.742Z,34.30
2019-02-05T14:26:40.255Z,40.00
2019-02-05T14:29:10.343Z,39.00
2019-02-05T14:31:40.011Z,34.20
2019-02-05T14:34:09.732Z,39.33
2019-02-05T14:36:39.253Z,44.60
2019-02-05T14:39:10.513Z,29.13
2019-02-05T14:41:39.998Z,27.37
2019-02-05T14:44:09.785Z,25.33
2019-02-05T14:46:39.398Z,35.17
2019-02-05T14:49:09.276Z,49.93
2019-02-05T14:51:39.011Z,45.07
2019-02-05T14:54:08.610Z,40.37
2019-02-05T14:56:38.269Z,22.37
2019-02-05T14:59:08.155Z,21.47
2019-02-05T15:01:43.169Z,23.83
2019-02-05T15:04:08.703Z,31.77
2019-02-05T15:06:38.459Z,31.90
2019-02-05T15:09:09.177Z,21.03
2019-02-05T15:11:38.809Z,25.00
2019-02-05T15:14:08.676Z,127.43
2019-02-05T15:16:38.447Z,101.13
2019-02-05T15:19:08.216Z,53.93
2019-02-05T15:21:37.897Z,25.83
2019-02-05T15:24:07.307Z,56.97
2019-02-05T15:26:36.955Z,79.20
2019-02-05T15:29:06.655Z,130.57
2019-02-05T15:31:36.637Z,72.63
2019-02-05T15:34:17.984Z,106.53
2019-02-05T15:36:49.552Z,132.63
2019-02-05T15:39:19.117Z,47.03
2019-02-05T15:41:48.957Z,53.57
2019-02-05T15:44:18.453Z,74.10
2019-02-05T15:46:48.120Z,90.77
2019-02-05T15:49:17.505Z,118.77
2019-02-05T15:51:47.088Z,207.97
2019-02-05T15:54:16.592Z,115.90
2019-02-05T15:56:48.500Z,86.37
2019-02-05T15:59:18.097Z,91.90
2019-02-05T16:01:47.717Z,136.70
2019-02-05T16:04:18.262Z,137.93
2019-02-05T16:06:47.702Z,181.40
2019-02-05T16:09:19.400Z,225.20
2019-02-05T16:11:52.212Z,167.63
2019-02-05T16:14:21.829Z,119.07
2019-02-05T16:16:51.269Z,125.60
2019-02-05T16:19:20.955Z,167.80
2019-02-05T16:21:50.590Z,129.67
2019-02-05T16:24:20.001Z,151.83
2019-02-05T16:26:51.205Z,139.63
2019-02-05T16:29:20.706Z,92.30
2019-02-05T16:31:50.357Z,90.80
2019-02-05T16:34:19.908Z,82.27
2019-02-05T16:36:49.683Z,25.03
2019-02-05T16:39:21.984Z,9.97
2019-02-05T16:41:51.780Z,24.90
2019-02-05T16:44:21.181Z,13.77
2019-02-05T16:46:51.074Z,24.80
2019-02-05T16:49:22.503Z,14.17
2019-02-05T16:51:51.935Z,19.60
2019-02-05T16:54:21.643Z,23.70
2019-02-05T16:56:51.506Z,11.93
2019-02-05T16:59:21.568Z,12.67
2019-02-05T17:01:51.551Z,9.07
2019-02-05T17:04:21.101Z,10.70
2019-02-05T17:06:50.527Z,9.00
2019-02-05T17:09:20.503Z,9.63
2019-02-05T17:11:50.266Z,11.37
2019-02-05T17:14:20.070Z,17.73
2019-02-05T17:16:49.525Z,18.70
2019-02-05T17:19:18.928Z,25.47
2019-02-05T17:21:48.425Z,23.27
2019-02-05T17:24:18.510Z,34.43
2019-02-05T17:26:48.255Z,26.50
2019-02-05T17:29:17.639Z,25.87
2019-02-05T17:31:47.526Z,14.93
2019-02-05T17:34:17.384Z,20.43
2019-02-05T17:36:46.805Z,37.47
2019-02-05T17:39:16.479Z,29.17
2019-02-05T17:41:46.225Z,22.23
2019-02-05T17:44:16.035Z,24.87
2019-02-05T17:46:45.617Z,15.30
2019-02-05T17:49:15.328Z,19.00
2019-02-05T17:51:45.302Z,38.43
2019-02-05T17:54:15.295Z,36.00
2019-02-05T17:56:45.149Z,34.63
2019-02-05T17:59:14.972Z,21.93
2019-02-05T18:01:44.620Z,20.17
2019-02-05T18:04:14.404Z,12.10
2019-02-05T18:06:44.926Z,17.03
2019-02-05T18:09:14.703Z,10.93
2019-02-05T18:11:44.462Z,10.53
2019-02-05T18:14:14.595Z,10.23
2019-02-05T18:16:46.776Z,8.27
2019-02-05T18:19:16.565Z,8.63
2019-02-05T18:21:46.852Z,10.77
2019-02-05T18:24:16.753Z,10.30
2019-02-05T18:26:47.945Z,8.90
2019-02-05T18:29:19.817Z,9.83
2019-02-05T18:31:49.403Z,11.27
2019-02-05T18:34:19.274Z,9.57
2019-02-05T18:36:49.136Z,12.03
2019-02-05T18:39:18.833Z,10.97
2019-02-05T18:41:48.664Z,14.20
2019-02-05T18:44:18.234Z,16.97
2019-02-05T18:46:47.979Z,16.63
2019-02-05T18:49:18.005Z,16.03
2019-02-05T18:51:47.764Z,15.67
2019-02-05T18:54:17.476Z,15.90
2019-02-05T18:56:47.022Z,15.53
2019-02-05T18:59:16.566Z,16.70
2019-02-05T19:01:46.375Z,13.77
2019-02-05T19:04:16.543Z,13.03
2019-02-05T19:06:46.178Z,12.63
2019-02-05T19:09:16.080Z,19.23
2019-02-05T19:11:46.046Z,15.57
2019-02-05T19:14:16.035Z,12.70
2019-02-05T19:16:45.779Z,12.70
2019-02-05T19:19:15.950Z,12.37
2019-02-05T19:21:45.917Z,10.03
2019-02-05T19:24:32.918Z,7.33
2019-02-05T19:27:02.342Z,9.47
2019-02-05T19:29:32.854Z,11.20
2019-02-05T19:32:02.684Z,10.43
2019-02-05T19:34:32.323Z,11.53
2019-02-05T19:37:02.411Z,12.13
2019-02-05T19:39:32.219Z,29.07
2019-02-05T19:42:01.826Z,14.57
2019-02-05T19:44:31.508Z,8.70
2019-02-05T19:47:04.247Z,9.20
2019-02-05T19:49:36.982Z,6.47
2019-02-05T19:52:06.667Z,5.23
2019-02-05T19:54:36.435Z,6.30
2019-02-05T19:57:06.268Z,5.77
2019-02-05T19:59:36.663Z,8.40
2019-02-05T20:02:06.862Z,4.97
2019-02-05T20:04:38.906Z,6.17
2019-02-05T20:07:08.556Z,4.80
2019-02-05T20:09:38.298Z,5.03
2019-02-05T20:12:09.393Z,4.93
2019-02-05T20:14:39.091Z,4.60
2019-02-05T20:17:09.096Z,5.67
2019-02-05T20:19:38.701Z,6.53
2019-02-05T20:22:08.185Z,5.43
2019-02-05T20:24:37.710Z,6.23
2019-02-05T20:27:07.938Z,5.40
2019-02-05T20:29:37.537Z,5.57
2019-02-05T20:32:07.626Z,7.20
2019-02-05T20:34:37.746Z,7.03
2019-02-05T20:37:07.497Z,4.70
2019-02-05T20:39:37.242Z,5.00
2019-02-05T20:42:06.913Z,5.70
2019-02-05T20:44:36.634Z,5.80
2019-02-05T20:47:06.745Z,5.27
2019-02-05T20:49:36.127Z,5.83
2019-02-05T20:52:05.992Z,6.03
2019-02-05T20:54:35.604Z,7.17
2019-02-05T20:57:05.270Z,5.10
2019-02-05T20:59:34.913Z,5.77
2019-02-05T21:02:04.736Z,7.03
2019-02-05T21:04:35.524Z,4.97
2019-02-05T21:07:05.643Z,5.83
2019-02-05T21:09:35.134Z,5.87
2019-02-05T21:12:04.852Z,6.30
2019-02-05T21:14:34.465Z,8.13
2019-02-05T21:17:04.299Z,7.83
2019-02-05T21:19:34.133Z,10.50
2019-02-05T21:22:03.791Z,9.07
2019-02-05T21:24:33.226Z,7.67
2019-02-05T21:27:02.836Z,8.90
2019-02-05T21:29:32.572Z,7.17
2019-02-05T21:32:01.961Z,5.37
2019-02-05T21:34:31.900Z,5.30
2019-02-05T21:37:01.560Z,7.60
2019-02-05T21:39:31.138Z,8.47
2019-02-05T21:42:00.987Z,9.87
2019-02-05T21:44:30.725Z,10.20
2019-02-05T21:47:00.313Z,4.93
2019-02-05T21:49:30.079Z,5.70
2019-02-05T21:51:59.807Z,5.23
2019-02-05T21:54:29.287Z,7.43
2019-02-05T21:56:58.897Z,6.70
2019-02-05T21:59:28.295Z,8.43
2019-02-05T22:01:57.796Z,5.87
2019-02-05T22:04:28.214Z,5.60
2019-02-05T22:06:58.151Z,5.47
2019-02-05T22:09:27.631Z,7.33
2019-02-05T22:11:57.308Z,6.50
2019-02-05T22:14:26.804Z,13.10
2019-02-05T22:16:56.203Z,34.07
2019-02-05T22:19:27.048Z,23.73
2019-02-05T22:21:56.716Z,19.77
2019-02-05T22:24:26.407Z,22.50
2019-02-05T22:26:56.244Z,17.17
2019-02-05T22:29:25.745Z,18.37
2019-02-05T22:31:56.927Z,24.70
2019-02-05T22:34:38.600Z,27.77
2019-02-05T22:36:57.891Z,26.93
2019-02-05T22:39:27.754Z,28.33
2019-02-05T22:41:57.444Z,24.83
2019-02-05T22:44:26.850Z,23.53
2019-02-05T22:46:56.987Z,22.13
2019-02-05T22:49:26.770Z,20.10
2019-02-05T22:51:56.714Z,17.40
2019-02-05T22:54:26.417Z,23.87
2019-02-05T22:56:55.907Z,30.93
2019-02-05T22:59:25.938Z,30.33
2019-02-05T23:01:57.979Z,31.77
2019-02-05T23:05:14.071Z,26.03
2019-02-05T23:07:43.996Z,32.73
2019-02-05T23:10:34.823Z,43.97
2019-02-05T23:13:07.791Z,33.03
2019-02-05T23:15:39.322Z,35.53
2019-02-05T23:18:09.294Z,30.47
2019-02-05T23:20:39.001Z,31.33
2019-02-05T23:23:08.385Z,34.50
2019-02-05T23:25:38.069Z,32.70
2019-02-05T23:28:07.769Z,36.03
2019-02-05T23:30:37.508Z,34.07
2019-02-05T23:33:07.162Z,30.40
2019-02-05T23:35:36.789Z,30.50
2019-02-05T23:38:06.742Z,36.00
2019-02-05T23:40:36.336Z,31.97
2019-02-05T23:43:06.409Z,30.33
2019-02-05T23:45:36.317Z,30.77
2019-02-05T23:48:06.377Z,36.23
2019-02-05T23:50:36.081Z,28.80
2019-02-05T23:53:06.586Z,34.17
2019-02-05T23:55:36.425Z,34.83
2019-02-05T23:58:06.583Z,38.67
